Time;durP1;ratioP1;P1;durP2;ratioP2;P2;SDS_P1;SDS_P2;PMS_P1;PMS_P2;Temp;Humidity;BMP_temperature;BMP_pressure;BME280_temperature;BME280_humidity;BME280_pressure;Samples;Min_cycle;Max_cycle;Signal;HPM_P1;HPM_P2
2022/09/27 00:01:24;;;;;;;13.63;2.40;;;10.70;99.90;;;;;;5052978;28;20110;-58
2022/09/27 00:03:57;;;;;;;11.52;2.60;;;10.50;99.90;;;;;;5051952;28;20474;-59
2022/09/27 00:06:30;;;;;;;12.90;2.80;;;10.50;99.90;;;;;;5053148;28;20037;-59
2022/09/27 00:08:59;;;;;;;16.23;2.83;;;10.70;99.90;;;;;;5053461;28;20048;-59
2022/09/27 00:11:41;;;;;;;12.73;2.70;;;11.30;99.90;;;;;;5052969;28;20119;-60
2022/09/27 00:14:09;;;;;;;14.27;2.72;;;10.60;99.90;;;;;;5053039;28;20045;-59
2022/09/27 00:16:37;;;;;;;13.13;2.65;;;10.40;99.90;;;;;;5053045;28;20040;-61
2022/09/27 00:19:08;;;;;;;15.10;2.92;;;10.40;99.90;;;;;;5053161;28;20045;-59
2022/09/27 00:21:34;;;;;;;11.77;3.00;;;10.20;99.90;;;;;;5051947;28;20049;-59
2022/09/27 00:24:00;;;;;;;15.60;2.60;;;10.50;99.90;;;;;;5052989;28;20075;-59
2022/09/27 00:26:26;;;;;;;15.10;2.53;;;10.50;99.90;;;;;;5051613;28;20041;-59
2022/09/27 00:28:52;;;;;;;12.20;2.58;;;10.30;99.90;;;;;;5052848;28;20068;-59
2022/09/27 00:31:28;;;;;;;12.48;2.63;;;10.30;99.90;;;;;;5052850;28;20036;-60
2022/09/27 00:33:59;;;;;;;15.00;2.88;;;10.60;99.90;;;;;;5053291;28;20036;-59
2022/09/27 00:36:27;;;;;;;10.13;2.53;;;10.40;99.90;;;;;;5051698;28;20485;-60
2022/09/27 00:38:53;;;;;;;13.10;2.42;;;10.20;99.90;;;;;;5053013;28;20037;-59
2022/09/27 00:41:24;;;;;;;13.95;2.22;;;9.90;99.90;;;;;;5052719;28;20037;-59
2022/09/27 00:43:58;;;;;;;14.95;2.15;;;11.00;99.90;;;;;;5052711;28;20037;-59
2022/09/27 00:46:36;;;;;;;12.77;2.80;;;10.00;99.90;;;;;;5052684;28;20537;-59
2022/09/27 00:49:25;;;;;;;10.82;2.30;;;8.90;99.90;;;;;;5051376;28;20156;-59
2022/09/27 00:52:01;;;;;;;13.40;2.03;;;10.00;99.90;;;;;;5053072;28;20041;-59
2022/09/27 00:54:28;;;;;;;14.50;2.42;;;9.80;99.90;;;;;;5052499;28;20524;-59
2022/09/27 00:56:55;;;;;;;10.52;1.98;;;10.20;99.90;;;;;;5052600;28;20041;-59
2022/09/27 00:59:45;;;;;;;6.38;1.83;;;9.80;99.90;;;;;;5052753;28;20125;-59
2022/09/27 01:02:11;;;;;;;6.88;1.55;;;9.70;99.90;;;;;;5051221;28;20053;-59
2022/09/27 01:04:38;;;;;;;6.20;1.60;;;9.90;99.90;;;;;;5052884;28;20139;-59
2022/09/27 01:07:05;;;;;;;12.23;2.00;;;9.80;99.90;;;;;;5052759;28;20033;-59
2022/09/27 01:09:32;;;;;;;9.75;2.15;;;9.70;99.90;;;;;;5052765;28;20041;-59
2022/09/27 01:12:22;;;;;;;12.00;2.00;;;9.70;99.90;;;;;;5052835;28;20409;-59
2022/09/27 01:14:56;;;;;;;9.25;1.83;;;9.80;99.90;;;;;;5052986;28;20194;-60
2022/09/27 01:17:31;;;;;;;6.68;1.45;;;9.60;99.90;;;;;;5051340;28;20205;-60
2022/09/27 01:20:30;;;;;;;8.60;1.45;;;10.60;99.90;;;;;;5052557;28;20091;-60
2022/09/27 01:23:17;;;;;;;11.25;1.70;;;9.70;99.90;;;;;;5052258;28;20504;-59
2022/09/27 01:26:20;;;;;;;5.07;1.42;;;9.60;99.90;;;;;;5054711;28;20037;-60
2022/09/27 01:29:22;;;;;;;7.00;1.42;;;9.80;99.90;;;;;;5054985;28;20126;-60
2022/09/27 01:32:09;;;;;;;9.75;1.55;;;9.50;99.90;;;;;;5055909;28;20084;-59
2022/09/27 01:34:57;;;;;;;5.43;1.15;;;9.50;99.90;;;;;;5056212;28;20176;-60
2022/09/27 01:37:43;;;;;;;9.20;1.58;;;9.70;99.90;;;;;;5056172;28;20041;-60
2022/09/27 01:40:32;;;;;;;9.18;1.52;;;9.90;99.90;;;;;;5056327;28;20179;-60
2022/09/27 01:43:08;;;;;;;7.72;1.67;;;9.40;99.90;;;;;;5054387;28;20045;-60
2022/09/27 01:45:43;;;;;;;10.95;1.70;;;9.70;99.90;;;;;;5055830;28;20048;-60
2022/09/27 01:48:17;;;;;;;6.32;1.52;;;9.60;99.90;;;;;;5055746;28;20118;-59
2022/09/27 01:50:49;;;;;;;5.35;1.40;;;9.50;99.90;;;;;;5055450;28;20041;-59
2022/09/27 01:53:22;;;;;;;5.53;1.20;;;9.80;99.90;;;;;;5055682;28;20435;-59
2022/09/27 01:55:51;;;;;;;7.05;1.23;;;9.40;99.90;;;;;;5055534;28;20036;-59
2022/09/27 01:58:23;;;;;;;6.00;1.38;;;10.00;99.90;;;;;;5055389;28;20053;-59
2022/09/27 02:00:52;;;;;;;5.10;1.30;;;9.40;99.90;;;;;;5053630;28;20049;-60
2022/09/27 02:03:22;;;;;;;5.97;1.55;;;9.50;99.90;;;;;;5054672;28;20102;-60
2022/09/27 02:06:08;;;;;;;4.57;1.50;;;9.70;99.90;;;;;;5054338;28;20048;-60
2022/09/27 02:08:40;;;;;;;6.13;1.40;;;9.70;99.90;;;;;;5055579;28;20041;-60
2022/09/27 02:11:10;;;;;;;6.38;1.40;;;9.50;99.90;;;;;;5053953;28;20076;-60
2022/09/27 02:13:57;;;;;;;11.68;1.70;;;9.50;99.90;;;;;;5055251;28;20041;-60
2022/09/27 02:16:41;;;;;;;8.63;1.30;;;9.20;99.90;;;;;;5054481;28;20049;-60
2022/09/27 02:19:21;;;;;;;4.60;1.40;;;9.80;99.90;;;;;;5054980;28;20595;-60
2022/09/27 02:22:06;;;;;;;7.13;1.13;;;9.80;99.90;;;;;;5054919;28;20139;-60
2022/09/27 02:25:16;;;;;;;5.95;1.38;;;9.40;99.90;;;;;;5055067;28;20033;-60
2022/09/27 02:28:10;;;;;;;9.88;1.38;;;9.30;99.90;;;;;;5047387;28;20374;-59
2022/09/27 02:30:38;;;;;;;4.75;1.20;;;10.00;99.90;;;;;;5054796;28;20401;-60
2022/09/27 02:33:07;;;;;;;5.68;1.45;;;9.60;99.90;;;;;;5055079;28;20051;-60
2022/09/27 02:35:35;;;;;;;8.20;1.73;;;9.60;99.90;;;;;;5054661;28;20037;-59
2022/09/27 02:38:04;;;;;;;6.63;1.40;;;9.60;99.90;;;;;;5053381;28;20049;-60
2022/09/27 02:40:41;;;;;;;6.82;1.40;;;9.40;99.90;;;;;;5054911;28;20073;-60
2022/09/27 02:43:08;;;;;;;9.98;1.85;;;9.50;99.90;;;;;;5054530;28;20044;-60
2022/09/27 02:46:17;;;;;;;9.07;1.50;;;9.50;99.90;;;;;;5054473;28;20041;-60
2022/09/27 02:49:20;;;;;;;5.40;1.33;;;9.40;99.90;;;;;;5043550;28;20044;-60
2022/09/27 02:52:08;;;;;;;5.95;1.30;;;9.50;99.90;;;;;;5054660;28;20044;-58
2022/09/27 02:54:40;;;;;;;5.35;1.10;;;9.40;99.90;;;;;;5054591;28;20036;-60
2022/09/27 02:57:31;;;;;;;4.85;1.00;;;9.40;99.90;;;;;;5054738;28;20143;-60
2022/09/27 03:00:16;;;;;;;5.85;1.25;;;9.50;99.90;;;;;;5054228;28;20040;-60
2022/09/27 03:03:12;;;;;;;6.57;1.25;;;9.30;99.90;;;;;;5054033;28;20075;-60
2022/09/27 03:05:44;;;;;;;4.28;1.23;;;9.40;99.90;;;;;;5054160;28;20060;-60
2022/09/27 03:08:12;;;;;;;8.98;1.30;;;8.90;99.90;;;;;;5054013;28;20094;-60
2022/09/27 03:10:39;;;;;;;4.25;1.33;;;;;;;;;;5053971;28;20048;-58
2022/09/27 03:13:05;;;;;;;6.53;1.30;;;9.30;99.90;;;;;;5054077;28;20033;-60
2022/09/27 03:15:30;;;;;;;4.38;1.23;;;9.20;99.90;;;;;;5053979;28;20123;-60
2022/09/27 03:17:56;;;;;;;3.80;1.20;;;9.30;99.90;;;;;;5053956;28;20064;-60
2022/09/27 03:20:25;;;;;;;6.70;1.40;;;9.20;99.90;;;;;;5053894;28;20037;-58
2022/09/27 03:22:51;;;;;;;5.15;1.13;;;9.30;99.90;;;;;;5053843;28;20041;-58
2022/09/27 03:25:20;;;;;;;5.93;1.52;;;9.40;99.90;;;;;;5035929;28;20041;-59
2022/09/27 03:27:46;;;;;;;5.25;1.38;;;;;;;;;;5052533;28;20045;-60
2022/09/27 03:30:13;;;;;;;3.33;1.00;;;9.00;99.90;;;;;;5053717;28;20120;-59
2022/09/27 03:32:45;;;;;;;5.13;1.23;;;9.30;99.90;;;;;;5053457;28;20099;-58
2022/09/27 03:35:13;;;;;;;4.60;0.98;;;9.20;99.90;;;;;;5053555;28;20045;-58
2022/09/27 03:37:40;;;;;;;6.90;1.35;;;8.90;99.90;;;;;;5052256;28;20096;-58
2022/09/27 03:40:08;;;;;;;4.57;1.13;;;9.40;99.90;;;;;;5052401;28;20492;-58
2022/09/27 03:42:34;;;;;;;3.97;1.00;;;9.00;99.90;;;;;;5053276;28;20515;-59
2022/09/27 03:45:03;;;;;;;5.68;1.45;;;9.20;99.90;;;;;;5052397;28;20488;-60
2022/09/27 03:47:30;;;;;;;2.88;0.93;;;9.70;99.90;;;;;;5051641;28;20049;-60
2022/09/27 03:49:57;;;;;;;2.08;0.88;;;9.30;99.90;;;;;;5053682;28;20041;-60
2022/09/27 03:52:24;;;;;;;2.97;1.08;;;9.10;99.90;;;;;;5052340;28;20051;-60
2022/09/27 03:54:53;;;;;;;6.03;0.98;;;9.00;99.90;;;;;;5052176;28;20087;-60
2022/09/27 03:57:18;;;;;;;8.23;1.38;;;9.30;99.90;;;;;;5053333;28;20586;-60
2022/09/27 03:59:44;;;;;;;4.38;0.90;;;9.00;99.90;;;;;;5053154;28;20044;-59
2022/09/27 04:02:09;;;;;;;2.95;0.90;;;8.90;99.90;;;;;;5052702;28;20171;-59
2022/09/27 04:04:36;;;;;;;5.90;0.95;;;9.10;99.90;;;;;;5053537;28;20043;-59
2022/09/27 04:07:01;;;;;;;8.10;1.20;;;8.90;99.90;;;;;;5052162;28;20037;-60
2022/09/27 04:09:28;;;;;;;7.28;1.50;;;8.90;99.90;;;;;;5053100;28;20040;-60
2022/09/27 04:11:55;;;;;;;4.55;1.10;;;;;;;;;;5053037;28;20044;-60
2022/09/27 04:14:20;;;;;;;5.53;1.30;;;9.00;99.90;;;;;;5053531;28;20060;-60
2022/09/27 04:16:47;;;;;;;3.75;1.00;;;8.90;99.90;;;;;;5052916;28;20485;-60
2022/09/27 04:19:13;;;;;;;8.68;1.15;;;9.10;99.90;;;;;;5053172;28;20055;-60
2022/09/27 04:21:42;;;;;;;5.47;1.17;;;9.00;99.90;;;;;;5053022;28;20076;-60
2022/09/27 04:24:10;;;;;;;4.07;0.95;;;9.10;99.90;;;;;;5052991;28;20516;-60
2022/09/27 04:26:38;;;;;;;5.57;1.15;;;;;;;;;;5051786;28;20493;-60
2022/09/27 04:29:03;;;;;;;5.78;1.17;;;9.00;99.90;;;;;;5053332;28;20389;-60
2022/09/27 04:31:43;;;;;;;7.53;1.08;;;8.90;99.90;;;;;;5052811;28;20040;-58
2022/09/27 04:34:12;;;;;;;5.15;1.80;;;8.70;99.90;;;;;;5052797;28;20045;-58
2022/09/27 04:36:41;;;;;;;3.53;1.00;;;9.70;99.90;;;;;;5052904;28;20041;-58
2022/09/27 04:39:08;;;;;;;5.53;1.30;;;8.80;99.90;;;;;;5052801;28;20048;-58
2022/09/27 04:41:35;;;;;;;3.97;1.10;;;8.60;99.90;;;;;;5036682;28;20114;-58
2022/09/27 04:44:02;;;;;;;4.20;1.20;;;8.80;99.90;;;;;;5052159;28;20044;-58
2022/09/27 04:46:30;;;;;;;5.95;1.50;;;8.80;99.90;;;;;;5050246;28;20037;-58
2022/09/27 04:48:58;;;;;;;6.68;1.27;;;8.80;99.90;;;;;;5051766;28;20044;-58
2022/09/27 04:51:26;;;;;;;6.00;1.10;;;8.80;99.90;;;;;;5033946;28;20429;-58
2022/09/27 04:53:52;;;;;;;4.85;1.15;;;8.70;99.90;;;;;;5051745;28;20033;-59
2022/09/27 04:56:18;;;;;;;5.30;1.17;;;;;;;;;;5050615;28;20064;-58
2022/09/27 04:58:45;;;;;;;4.45;1.30;;;8.80;99.90;;;;;;5051115;28;20040;-58
2022/09/27 05:01:14;;;;;;;5.80;1.27;;;8.80;99.90;;;;;;5053016;28;20049;-58
2022/09/27 05:03:40;;;;;;;14.00;2.45;;;8.70;99.90;;;;;;5055384;28;20057;-57
2022/09/27 05:06:07;;;;;;;4.90;1.10;;;9.00;99.90;;;;;;5055312;28;20473;-58
2022/09/27 05:08:33;;;;;;;5.97;1.20;;;;;;;;;;5055019;28;20044;-58
2022/09/27 05:11:00;;;;;;;1.77;1.00;;;;;;;;;;5055090;28;20319;-60
2022/09/27 05:13:26;;;;;;;5.90;1.15;;;;;;;;;;5052827;28;20041;-59
2022/09/27 05:15:52;;;;;;;7.20;1.42;;;8.80;99.90;;;;;;5055054;28;20033;-60
2022/09/27 05:18:18;;;;;;;12.38;1.65;;;;;;;;;;5055552;28;20127;-60
2022/09/27 05:20:44;;;;;;;4.30;1.65;;;9.30;99.90;;;;;;5056105;28;20037;-60
2022/09/27 05:23:10;;;;;;;5.25;1.30;;;;;;;;;;5056190;28;20454;-60
2022/09/27 05:25:36;;;;;;;3.63;1.20;;;9.20;99.90;;;;;;5055818;28;20063;-60
2022/09/27 05:28:01;;;;;;;8.98;1.10;;;8.90;99.90;;;;;;5056283;28;20033;-60
2022/09/27 05:30:28;;;;;;;5.60;2.13;;;8.80;99.90;;;;;;5056206;28;20040;-60
2022/09/27 05:32:55;;;;;;;7.80;1.42;;;8.80;99.90;;;;;;5054866;28;20091;-61
2022/09/27 05:35:23;;;;;;;7.38;1.10;;;8.70;99.90;;;;;;5055970;28;20397;-60
2022/09/27 05:37:57;;;;;;;3.83;1.15;;;8.60;99.90;;;;;;5055573;28;20040;-61
2022/09/27 05:40:28;;;;;;;5.97;1.25;;;8.80;99.90;;;;;;5054725;28;20092;-60
2022/09/27 05:42:54;;;;;;;4.93;1.17;;;8.80;99.90;;;;;;5054352;28;20451;-62
2022/09/27 05:45:23;;;;;;;6.68;1.13;;;8.80;99.90;;;;;;5054020;28;20435;-61
2022/09/27 05:47:58;;;;;;;2.97;1.02;;;9.10;99.90;;;;;;5054062;28;20424;-60
2022/09/27 05:50:26;;;;;;;5.35;1.30;;;8.90;99.90;;;;;;5053014;28;20041;-63
2022/09/27 05:52:52;;;;;;;5.25;1.35;;;9.00;99.90;;;;;;5053841;28;20503;-60
2022/09/27 05:55:18;;;;;;;4.97;1.30;;;9.80;99.90;;;;;;5054977;28;20048;-60
2022/09/27 05:58:05;;;;;;;3.70;1.05;;;9.40;99.90;;;;;;5055238;28;20070;-59
2022/09/27 06:00:31;;;;;;;4.55;1.42;;;;;;;;;;5054050;28;20556;-59
2022/09/27 06:03:00;;;;;;;6.50;1.30;;;8.50;99.90;;;;;;5055180;28;20179;-60
2022/09/27 06:05:34;;;;;;;5.38;1.30;;;9.70;99.90;;;;;;5055237;28;20053;-59
2022/09/27 06:08:06;;;;;;;6.97;1.70;;;8.80;99.90;;;;;;5055301;28;20044;-59
2022/09/27 06:10:32;;;;;;;6.90;1.42;;;9.10;99.90;;;;;;5054778;28;20044;-60
2022/09/27 06:13:02;;;;;;;4.68;1.50;;;9.40;99.90;;;;;;5055085;28;20139;-61
2022/09/27 06:15:31;;;;;;;4.38;1.30;;;9.10;99.90;;;;;;5053711;28;20123;-60
2022/09/27 06:18:01;;;;;;;11.93;1.58;;;9.10;99.90;;;;;;5055110;28;20044;-60
2022/09/27 06:20:27;;;;;;;6.38;1.50;;;;;;;;;;5055151;28;20404;-60
2022/09/27 06:22:54;;;;;;;4.00;1.33;;;9.00;99.90;;;;;;5054862;28;20107;-60
2022/09/27 06:25:20;;;;;;;8.88;1.40;;;9.30;99.90;;;;;;5054771;28;20044;-60
2022/09/27 06:27:46;;;;;;;7.63;1.60;;;;;;;;;;5054651;28;20515;-60
2022/09/27 06:30:12;;;;;;;2.80;1.27;;;;;;;;;;5054951;28;20099;-60
2022/09/27 06:32:41;;;;;;;6.32;1.90;;;9.10;99.90;;;;;;5054600;28;20049;-60
2022/09/27 06:35:10;;;;;;;8.15;1.60;;;;;;;;;;5054833;28;20040;-59
2022/09/27 06:37:36;;;;;;;6.95;1.73;;;9.10;99.90;;;;;;5054493;28;20044;-59
2022/09/27 06:40:03;;;;;;;8.35;1.50;;;;;;;;;;5054711;28;20052;-59
2022/09/27 06:42:29;;;;;;;5.78;1.60;;;;;;;;;;5051708;28;20136;-59
2022/09/27 06:44:55;;;;;;;5.32;1.58;;;9.40;99.90;;;;;;5054347;28;20445;-59
2022/09/27 06:47:22;;;;;;;9.05;1.58;;;9.20;99.90;;;;;;5053138;28;20094;-59
2022/09/27 06:49:49;;;;;;;7.63;1.40;;;9.10;99.90;;;;;;5054360;28;20421;-59
2022/09/27 06:52:18;;;;;;;5.78;1.70;;;9.20;99.90;;;;;;5054276;28;20055;-60
2022/09/27 06:54:45;;;;;;;7.60;1.75;;;9.40;99.90;;;;;;5053824;28;20053;-59
2022/09/27 07:00:22;;;;;;;7.78;1.98;;;9.60;99.90;;;;;;5054315;28;20041;-60
2022/09/27 07:02:44;;;;;;;7.32;1.40;;;9.60;99.90;;;;;;5052404;28;20153;-59
2022/09/27 07:05:12;;;;;;;3.50;1.45;;;;;;;;;;5054201;28;20397;-59
2022/09/27 07:07:38;;;;;;;11.85;1.90;;;9.80;99.90;;;;;;5053820;28;20056;-59
2022/09/27 07:10:05;;;;;;;3.88;1.45;;;10.10;99.90;;;;;;5054248;28;20440;-59
2022/09/27 07:12:31;;;;;;;9.60;1.73;;;9.70;99.90;;;;;;5054167;28;20123;-59
2022/09/27 07:14:57;;;;;;;6.95;1.40;;;9.20;99.90;;;;;;5053801;28;20124;-59
2022/09/27 07:17:24;;;;;;;7.13;1.55;;;;;;;;;;5053902;28;20098;-59
2022/09/27 07:19:50;;;;;;;8.60;1.60;;;;;;;;;;5053857;28;20132;-60
2022/09/27 07:22:16;;;;;;;6.68;1.60;;;9.10;99.90;;;;;;5051996;28;20072;-59
2022/09/27 07:24:43;;;;;;;2.75;1.33;;;9.60;99.90;;;;;;5053826;28;20114;-58
2022/09/27 07:27:09;;;;;;;4.95;1.40;;;10.10;99.90;;;;;;5053884;28;20200;-59
2022/09/27 07:29:34;;;;;;;5.88;1.58;;;9.90;99.90;;;;;;5042055;28;20434;-58
2022/09/27 07:32:01;;;;;;;4.70;1.30;;;10.20;99.90;;;;;;5033882;28;20052;-59
2022/09/27 07:34:27;;;;;;;3.78;1.60;;;10.40;99.90;;;;;;5033540;28;20041;-60
2022/09/27 07:36:58;;;;;;;7.53;2.00;;;10.50;99.90;;;;;;5032596;28;20459;-59
2022/09/27 07:39:27;;;;;;;5.32;1.60;;;10.60;99.90;;;;;;5052173;28;20029;-59
2022/09/27 07:41:53;;;;;;;3.05;1.52;;;10.60;99.90;;;;;;5052282;28;20088;-59
2022/09/27 07:44:18;;;;;;;8.90;1.50;;;10.60;99.90;;;;;;5051944;28;20072;-59
2022/09/27 07:46:45;;;;;;;6.03;1.70;;;;;;;;;;5051914;28;20106;-59
2022/09/27 07:49:10;;;;;;;8.75;1.70;;;11.00;99.90;;;;;;5051786;28;20037;-58
2022/09/27 07:51:36;;;;;;;36.65;3.03;;;10.80;99.90;;;;;;5050559;28;20041;-58
2022/09/27 07:54:02;;;;;;;5.38;1.70;;;;;;;;;;5051384;28;20033;-59
2022/09/27 07:56:28;;;;;;;4.47;1.67;;;10.80;99.90;;;;;;5051087;28;20120;-58
2022/09/27 07:58:56;;;;;;;6.22;1.50;;;10.80;99.90;;;;;;5052165;28;20045;-58
2022/09/27 08:01:21;;;;;;;6.05;1.65;;;10.80;99.90;;;;;;5051816;28;20377;-59
2022/09/27 08:03:51;;;;;;;7.10;1.50;;;;;;;;;;5051156;28;20077;-58
2022/09/27 08:06:17;;;;;;;6.03;1.35;;;;;;;;;;5052048;28;20060;-59
2022/09/27 08:08:44;;;;;;;4.75;1.55;;;;;;;;;;5051578;28;20075;-59
2022/09/27 08:11:14;;;;;;;4.25;1.42;;;10.80;99.90;;;;;;5051860;28;20052;-59
2022/09/27 08:13:44;;;;;;;6.47;1.40;;;10.60;99.90;;;;;;5051397;28;20053;-58
2022/09/27 08:16:10;;;;;;;6.38;1.45;;;10.60;99.90;;;;;;5051626;28;20049;-58
2022/09/27 08:18:36;;;;;;;6.68;1.50;;;10.60;99.90;;;;;;5052006;28;20051;-58
2022/09/27 08:21:03;;;;;;;9.77;1.50;;;10.70;99.90;;;;;;5051829;28;20110;-59
2022/09/27 08:23:29;;;;;;;5.72;1.30;;;10.80;99.90;;;;;;5013824;28;20057;-61
2022/09/27 08:25:59;;;;;;;4.63;1.30;;;;;;;;;;5032086;28;20123;-60
2022/09/27 08:28:26;;;;;;;4.63;1.20;;;10.90;99.90;;;;;;5031502;28;20520;-60
2022/09/27 08:30:52;;;;;;;3.85;1.20;;;11.20;99.90;;;;;;5032056;28;20103;-61
2022/09/27 08:33:18;;;;;;;4.25;1.27;;;;;;;;;;5063829;28;20402;-60
2022/09/27 08:35:44;;;;;;;4.60;1.50;;;12.80;99.90;;;;;;5036370;28;20095;-61
2022/09/27 08:38:11;;;;;;;3.45;1.17;;;13.20;99.90;;;;;;5035756;28;20037;-59
2022/09/27 08:40:57;;;;;;;2.33;1.00;;;13.90;99.90;;;;;;5036100;28;20064;-59
2022/09/27 08:43:29;;;;;;;4.78;1.15;;;14.30;99.90;;;;;;5034522;28;20045;-59
2022/09/27 08:46:01;;;;;;;4.18;1.15;;;14.30;99.90;;;;;;5038968;28;20049;-61
2022/09/27 08:48:29;;;;;;;4.43;1.30;;;14.70;99.90;;;;;;5045641;28;20037;-61
2022/09/27 08:50:56;;;;;;;4.15;1.00;;;15.10;99.90;;;;;;5047076;28;20477;-59
2022/09/27 08:53:35;;;;;;;2.55;1.08;;;15.50;99.90;;;;;;5039672;28;20509;-59
2022/09/27 08:56:02;;;;;;;7.13;1.20;;;15.70;99.90;;;;;;5035500;28;20059;-59
2022/09/27 08:58:30;;;;;;;7.25;1.10;;;15.70;99.90;;;;;;5035757;28;20042;-56
2022/09/27 09:01:05;;;;;;;4.45;1.30;;;15.40;99.90;;;;;;5035160;28;20045;-56
2022/09/27 09:03:38;;;;;;;3.50;1.10;;;14.60;99.90;;;;;;5035395;28;20057;-57
2022/09/27 09:06:19;;;;;;;4.07;1.02;;;15.50;99.90;;;;;;5067240;28;20379;-58
2022/09/27 09:09:22;;;;;;;3.58;1.10;;;14.90;99.90;;;;;;5035519;28;20460;-58
2022/09/27 09:15:02;;;;;;;5.03;1.08;;;15.30;99.90;;;;;;5035200;28;20056;-57
2022/09/27 09:17:43;;;;;;;3.30;1.10;;;15.10;99.90;;;;;;5035126;28;20045;-57
2022/09/27 09:20:21;;;;;;;3.35;0.90;;;14.90;99.90;;;;;;5034763;28;20124;-58
2022/09/27 09:22:53;;;;;;;3.65;0.90;;;15.10;99.90;;;;;;5049657;28;20091;-57
2022/09/27 09:25:39;;;;;;;2.80;0.77;;;15.00;99.90;;;;;;5035075;28;20053;-57
2022/09/27 09:28:47;;;;;;;5.15;0.82;;;15.10;99.90;;;;;;5034745;28;20038;-58
2022/09/27 09:31:50;;;;;;;4.32;0.65;;;14.60;99.90;;;;;;5034468;28;20521;-58
2022/09/27 09:34:45;;;;;;;4.40;0.75;;;14.20;99.90;;;;;;5038052;28;20053;-58
2022/09/27 09:37:22;;;;;;;2.60;0.68;;;14.10;99.90;;;;;;5034075;28;20061;-57
2022/09/27 09:39:53;;;;;;;1.73;0.60;;;13.70;99.90;;;;;;5042626;28;20361;-58
2022/09/27 09:42:43;;;;;;;1.67;0.63;;;13.70;99.90;;;;;;5065569;28;20170;-58
2022/09/27 09:45:43;;;;;;;1.63;0.70;;;13.60;99.90;;;;;;5073562;28;20369;-57
2022/09/27 09:48:40;;;;;;;2.45;0.70;;;13.70;99.90;;;;;;5063545;28;20393;-58
2022/09/27 09:51:11;;;;;;;2.75;0.90;;;13.50;99.90;;;;;;5073276;28;20127;-58
2022/09/27 09:53:38;;;;;;;3.13;0.90;;;;;;;;;;5054296;28;20445;-58
2022/09/27 09:56:25;;;;;;;5.88;1.20;;;13.80;99.90;;;;;;5051144;28;20455;-58
2022/09/27 09:58:57;;;;;;;5.00;1.10;;;14.10;99.90;;;;;;5041135;28;20530;-58
2022/09/27 10:01:55;;;;;;;7.88;1.45;;;14.00;99.90;;;;;;5040133;28;20447;-57
2022/09/27 10:04:26;;;;;;;2.97;1.13;;;13.60;99.90;;;;;;5039843;28;20056;-57
2022/09/27 10:06:58;;;;;;;5.90;1.30;;;14.20;99.90;;;;;;5034393;28;20049;-58
2022/09/27 10:09:26;;;;;;;3.15;1.00;;;13.20;99.90;;;;;;5034309;28;20052;-58
2022/09/27 10:11:52;;;;;;;4.97;1.25;;;13.40;99.90;;;;;;5033170;28;20045;-58
2022/09/27 10:14:20;;;;;;;2.72;1.02;;;13.00;99.90;;;;;;5034478;28;20397;-58
2022/09/27 10:17:03;;;;;;;2.90;1.13;;;12.60;99.90;;;;;;5042929;28;20080;-58
2022/09/27 10:19:36;;;;;;;;;;;13.00;99.90;;;;;;5034901;28;20105;-58
2022/09/27 10:22:25;;;;;;;4.00;0.90;;;12.50;99.90;;;;;;5040898;28;19967;-58
2022/09/27 10:24:58;;;;;;;3.65;0.82;;;13.10;99.90;;;;;;5054147;28;20443;-58
2022/09/27 10:27:25;;;;;;;4.38;0.88;;;12.40;99.90;;;;;;5053772;28;20059;-58
2022/09/27 10:29:59;;;;;;;2.65;1.00;;;12.40;99.90;;;;;;5052750;28;20068;-57
2022/09/27 10:32:35;;;;;;;3.40;1.25;;;12.90;99.90;;;;;;5053196;28;20048;-58
2022/09/27 10:35:28;;;;;;;2.83;0.60;;;12.90;99.90;;;;;;5034068;28;20041;-58
2022/09/27 10:38:28;;;;;;;2.38;0.50;;;13.30;99.90;;;;;;5033556;28;20052;-58
2022/09/27 10:40:57;;;;;;;1.95;0.70;;;13.60;99.90;;;;;;5049400;28;20057;-58
2022/09/27 10:43:35;;;;;;;0.95;0.50;;;13.30;99.90;;;;;;5033295;28;20053;-58
2022/09/27 10:46:20;;;;;;;1.83;0.70;;;13.50;99.90;;;;;;5032453;28;20045;-58
2022/09/27 10:48:45;;;;;;;2.28;0.80;;;14.00;99.90;;;;;;5033532;28;20401;-58
2022/09/27 10:51:30;;;;;;;1.52;0.50;;;13.70;99.90;;;;;;5034731;28;20037;-58
2022/09/27 10:54:00;;;;;;;2.05;0.70;;;14.60;99.90;;;;;;5053324;28;20052;-58
2022/09/27 10:56:34;;;;;;;2.63;0.70;;;13.90;99.90;;;;;;5053157;28;20037;-57
2022/09/27 10:59:01;;;;;;;3.30;0.90;;;13.70;99.90;;;;;;5053056;28;20053;-58
2022/09/27 11:01:44;;;;;;;1.95;0.70;;;14.00;99.90;;;;;;5052955;28;20068;-58
2022/09/27 11:04:25;;;;;;;1.83;0.82;;;14.00;99.90;;;;;;5052679;28;20140;-58
2022/09/27 11:06:52;;;;;;;3.45;0.85;;;;;;;;;;5053194;28;20047;-58
2022/09/27 11:09:23;;;;;;;2.78;0.80;;;14.20;99.90;;;;;;5052695;28;20378;-58
2022/09/27 11:12:04;;;;;;;1.23;0.50;;;14.20;99.90;;;;;;5053159;28;20041;-58
2022/09/27 11:14:31;;;;;;;2.22;0.73;;;14.10;99.90;;;;;;5052817;28;20117;-58
2022/09/27 11:17:07;;;;;;;4.22;1.00;;;14.20;99.90;;;;;;5053200;28;20041;-58
2022/09/27 11:19:33;;;;;;;2.13;0.85;;;;;;;;;;5052682;28;20056;-59
2022/09/27 11:22:34;;;;;;;2.33;0.93;;;14.20;99.90;;;;;;5053861;28;20040;-58
2022/09/27 11:25:53;;;;;;;4.28;1.17;;;14.40;99.90;;;;;;5052616;28;20079;-58
2022/09/27 11:28:39;;;;;;;2.97;1.00;;;14.40;99.90;;;;;;5051613;28;20041;-58
2022/09/27 11:31:34;;;;;;;4.85;1.35;;;14.40;99.90;;;;;;5051520;28;20041;-58
2022/09/27 11:34:10;;;;;;;3.53;1.10;;;13.90;99.90;;;;;;5040944;28;20044;-58
2022/09/27 11:36:47;;;;;;;3.65;1.10;;;14.70;99.90;;;;;;5051309;28;20044;-59
2022/09/27 11:39:31;;;;;;;5.03;0.90;;;14.70;99.90;;;;;;5051446;28;20063;-58
2022/09/27 11:42:41;;;;;;;4.15;1.10;;;14.40;99.90;;;;;;5051148;28;20152;-58
2022/09/27 11:45:25;;;;;;;4.00;0.90;;;14.20;99.90;;;;;;5051212;28;20033;-58
2022/09/27 11:47:57;;;;;;;2.58;0.70;;;13.80;99.90;;;;;;5051146;28;20083;-58
2022/09/27 11:50:48;;;;;;;4.03;0.90;;;13.50;99.90;;;;;;5051095;28;20041;-59
2022/09/27 11:53:35;;;;;;;3.13;0.80;;;13.60;99.90;;;;;;5051112;28;20044;-58
2022/09/27 11:56:24;;;;;;;3.03;0.90;;;13.20;99.90;;;;;;5051085;28;20051;-58
2022/09/27 11:59:19;;;;;;;2.22;0.77;;;13.20;99.90;;;;;;5051865;28;20118;-59
2022/09/27 12:02:00;;;;;;;2.25;0.80;;;13.30;99.90;;;;;;5052810;28;20071;-59
2022/09/27 12:04:26;;;;;;;4.00;0.60;;;;;;;;;;5053370;28;20094;-58
2022/09/27 12:07:18;;;;;;;4.28;0.93;;;13.30;99.90;;;;;;5053519;28;20047;-58
2022/09/27 12:09:49;;;;;;;2.25;0.75;;;13.30;99.90;;;;;;5053015;28;20037;-58
2022/09/27 12:12:24;;;;;;;2.17;0.82;;;13.60;99.90;;;;;;5053143;28;20036;-58
2022/09/27 12:15:12;;;;;;;2.65;1.00;;;13.50;99.90;;;;;;5052991;28;20041;-58
2022/09/27 12:17:45;;;;;;;1.35;0.70;;;13.80;99.90;;;;;;5053163;28;20044;-58
2022/09/27 12:20:25;;;;;;;1.05;0.63;;;14.50;99.90;;;;;;5052831;28;20060;-58
2022/09/27 12:23:00;;;;;;;5.20;0.90;;;14.00;99.90;;;;;;5051475;28;20045;-58
2022/09/27 12:25:36;;;;;;;0.90;0.32;;;14.30;99.90;;;;;;5053150;28;20091;-58
2022/09/27 12:28:19;;;;;;;1.48;0.55;;;14.30;99.90;;;;;;5052774;28;20134;-58
2022/09/27 12:30:53;;;;;;;1.77;0.73;;;14.20;99.90;;;;;;5052798;28;20059;-58
2022/09/27 12:33:46;;;;;;;4.00;0.70;;;14.40;99.90;;;;;;5051804;28;20045;-58
2022/09/27 12:36:16;;;;;;;1.75;0.55;;;14.40;99.90;;;;;;5052680;28;20110;-60
2022/09/27 12:38:51;;;;;;;2.65;0.85;;;14.50;99.90;;;;;;5052678;28;20060;-60
2022/09/27 12:41:22;;;;;;;1.40;0.63;;;14.50;99.90;;;;;;5052713;28;20396;-61
2022/09/27 12:43:49;;;;;;;1.73;0.43;;;14.50;99.90;;;;;;5052805;28;20114;-60
2022/09/27 12:46:42;;;;;;;1.45;0.40;;;14.50;99.90;;;;;;5052597;28;20124;-60
2022/09/27 12:49:32;;;;;;;0.98;0.50;;;14.50;99.90;;;;;;5052156;28;20508;-60
2022/09/27 12:52:02;;;;;;;2.13;0.70;;;14.60;99.90;;;;;;5050876;28;20504;-60
2022/09/27 12:55:08;;;;;;;2.92;0.57;;;14.00;99.90;;;;;;5052627;28;20045;-60
2022/09/27 12:57:54;;;;;;;2.47;0.63;;;14.80;99.90;;;;;;5051539;28;20076;-60
2022/09/27 13:00:24;;;;;;;0.77;0.40;;;14.90;99.90;;;;;;5050184;28;20504;-57
2022/09/27 13:03:08;;;;;;;3.15;0.88;;;15.30;99.90;;;;;;5051480;28;20571;-59
2022/09/27 13:05:42;;;;;;;2.28;0.90;;;15.20;99.90;;;;;;5052474;28;20128;-60
2022/09/27 13:08:33;;;;;;;4.15;0.93;;;15.10;99.90;;;;;;5052774;28;20056;-60
2022/09/27 13:11:27;;;;;;;3.92;1.10;;;15.10;99.90;;;;;;5052317;28;20052;-60
2022/09/27 13:13:58;;;;;;;2.45;0.88;;;14.80;99.90;;;;;;5052335;28;20123;-60
2022/09/27 13:16:26;;;;;;;2.15;1.00;;;15.10;99.90;;;;;;5052333;28;20052;-61
2022/09/27 13:19:02;;;;;;;6.40;1.13;;;14.70;99.90;;;;;;5052581;28;20443;-60
2022/09/27 13:21:48;;;;;;;3.83;1.10;;;14.90;99.90;;;;;;5054859;28;20075;-60
2022/09/27 13:24:39;;;;;;;4.35;1.20;;;14.80;99.90;;;;;;5054969;28;20048;-60
2022/09/27 13:27:28;;;;;;;4.07;1.13;;;13.70;99.90;;;;;;5056123;28;20041;-57
2022/09/27 13:30:11;;;;;;;5.78;1.33;;;14.90;99.90;;;;;;5055262;28;20052;-58
2022/09/27 13:32:37;;;;;;;5.50;1.20;;;;;;;;;;5054714;28;20048;-58
2022/09/27 13:35:23;;;;;;;4.93;1.08;;;14.50;99.90;;;;;;5055010;28;20041;-58
2022/09/27 13:37:58;;;;;;;3.35;0.85;;;14.70;99.90;;;;;;5055463;28;20060;-58
2022/09/27 13:40:38;;;;;;;4.03;1.10;;;14.70;99.90;;;;;;5054714;28;20574;-58
2022/09/27 13:43:30;;;;;;;2.47;0.90;;;14.60;99.90;;;;;;5053889;28;20063;-58